Taurus — 2CPB4 — position and weather

sailwx.info

Track history (hours):
 
Tides and Currents Weather Stations Pressure Air Temp Water Temp Dewpoint Dewpoint Depression Visibility Wind Speed Wind Dir Waves Ship Positions

Taurus

Last reported at 2016-Jun-13 08:19 UTC. Time now 2016-Jun-27 09:38 UTC.
Position S 34°18' E 017°54'.
Warning: this ship's position is 14 days out of date.

Length 292 m; draft 12.1 m.

Type: Cargo ship. MMSI: 235074621.

Date/timePositionNaut miles runAvg speedWind from/ knotsBaromVisibWave heightAir tempDewpointWater temp
2016-Jun-13 08:19S 34°18' E 017°54'  
2016-Jun-10 10:22S 32°39' E 031°30'910.7
2016-Jun-10 09:34S 32°36' E 031°39'1110.8
2016-Jun-10 08:33S 32°31' E 031°51'1111.1
2016-Jun-10 07:34S 32°27' E 032°03'1212.4
2016-Jun-10 06:33S 32°22' E 032°17'1312.7
2016-Jun-10 05:34S 32°17' E 032°31'1211.8
2016-Jun-10 04:34S 32°13' E 032°44'1211.7
2016-Jun-10 03:34S 32°08' E 032°56'4910.9
2016-Jun-09 23:04S 31°49' E 033°50'3010.6
2016-Jun-09 20:11S 31°37' E 034°23'711.0
2016-Jun-09 19:31S 31°35' E 034°30'1111.1
2016-Jun-09 18:34S 31°30' E 034°42'2611.0
2016-Jun-09 16:13S 31°21' E 035°10'2311.3
2016-Jun-09 14:08S 31°11' E 035°35'2911.1
2016-Jun-09 11:31S 30°60' E 036°06'1111.1
2016-Jun-09 10:33S 30°56' E 036°18'  
Track history (hours):
 
Tides and Currents Weather Stations Pressure Air Temp Water Temp Dewpoint Dewpoint Depression Visibility Wind Speed Wind Dir Waves Ship Positions

Taurus

Last reported at 2016-Jun-13 08:19 UTC. Time now 2016-Jun-27 09:38 UTC.
Position S 34°18' E 017°54'.
Warning: this ship's position is 14 days out of date.

Length 292 m; draft 12.1 m.

Type: Cargo ship. MMSI: 235074621.

Date/timePositionNaut miles runAvg speedWind from/ knotsBaromVisibWave heightAir tempDewpointWater temp
2016-Jun-13 08:19S 34°18' E 017°54'  
2016-Jun-10 10:22S 32°39' E 031°30'910.7
2016-Jun-10 09:34S 32°36' E 031°39'1110.8
2016-Jun-10 08:33S 32°31' E 031°51'1111.1
2016-Jun-10 07:34S 32°27' E 032°03'1212.4
2016-Jun-10 06:33S 32°22' E 032°17'1312.7
2016-Jun-10 05:34S 32°17' E 032°31'1211.8
2016-Jun-10 04:34S 32°13' E 032°44'1211.7
2016-Jun-10 03:34S 32°08' E 032°56'4910.9
2016-Jun-09 23:04S 31°49' E 033°50'3010.6
2016-Jun-09 20:11S 31°37' E 034°23'711.0
2016-Jun-09 19:31S 31°35' E 034°30'1111.1
2016-Jun-09 18:34S 31°30' E 034°42'2611.0
2016-Jun-09 16:13S 31°21' E 035°10'2311.3
2016-Jun-09 14:08S 31°11' E 035°35'2911.1
2016-Jun-09 11:31S 30°60' E 036°06'1111.1
2016-Jun-09 10:33S 30°56' E 036°18'  

Dump ship's entire track history